Pontiac, IL

7:12 PM CDT on May 24, 2017 (GMT -0500)
Pontiac Municipal

Weather History for KPNT - March, 2013

Change the Weather History Date:

Sunday, March 3, 2013

  Actual Average Record
Temperature  
Mean Temperature 24 °F -  
Max Temperature 33 °F 47 °F 78 °F (1974)
Min Temperature 15 °F 27 °F -2 °F (2014)
Degree Days  
Heating Degree Days 41    
Moisture  
Dew Point 17 °F    
Average Humidity 73    
Maximum Humidity 93    
Minimum Humidity 48    
Precipitation  
Precipitation 0.00 in - - ()
Sea Level Pressure  
Sea Level Pressure 30.12 in    
Wind  
Wind Speed 3 mph (WNW)    
Max Wind Speed 10 mph    
Max Gust Speed -    
Visibility 10 miles    
Events      
Averages and records for this station are not official NWS values.
T = Trace of Precipitation, MM = Missing Value Source: NWS Daily Summary

Daily Weather History Graph

Daily Weather History Graph

Search for Another Location

Airport or City:

Trip Planner

Search our weather history database for the weather conditions in past years. The results will help you decide how hot, cold, wet, or windy it might be!

Date:

Astronomy

Mar. 03, 2013 Rise Set
Actual Time 6:25 AM CST 5:48 PM CST
Civil Twilight 5:57 AM CST 6:15 PM CST
Nautical Twilight 5:25 AM CST 6:47 PM CST
Astronomical Twilight 4:54 AM CST 7:19 PM CST
Moon No Moon Rise 9:37 AM CST (3/3)
Length of Visible Light 12h 18m
Length of Day
11h 23m
Waning Gibbous, 63% of the Moon is Illuminated
Mar 3
Waning Gibbous
Mar 4
Last Quarter
Mar 11
New
Mar 19
First Quarter
Mar 27
Full

Hourly Weather History & Observations

Time (CST) Temp. Windchill Dew Point Humidity Pressure Visibility Wind Dir Wind Speed Gust Speed Precip Events Conditions
12:15 AM 19.4 °F - 15.8 °F 86% 30.17 in 10.0 mi Calm Calm - N/A   Clear
12:35 AM 19.4 °F - 15.8 °F 86% 30.17 in 10.0 mi Calm Calm - N/A   Clear
12:55 AM 19.4 °F 14.3 °F 15.8 °F 86% 30.17 in 10.0 mi WNW 3.5 mph - N/A   Clear
1:15 AM 17.6 °F 12.3 °F 15.8 °F 93% 30.17 in 10.0 mi West 3.5 mph - N/A   Clear
1:35 AM 17.6 °F 10.7 °F 15.8 °F 93% 30.17 in 10.0 mi West 4.6 mph - N/A   Clear
1:55 AM 17.6 °F 10.7 °F 15.8 °F 93% 30.16 in 10.0 mi West 4.6 mph - N/A   Clear
2:15 AM 17.6 °F 10.7 °F 14.0 °F 86% 30.16 in 10.0 mi West 4.6 mph - N/A   Clear
2:35 AM 17.6 °F 8.2 °F 14.0 °F 86% 30.15 in 10.0 mi WNW 6.9 mph - N/A   Clear
2:55 AM 17.6 °F 9.3 °F 14.0 °F 86% 30.14 in 10.0 mi WNW 5.8 mph - N/A   Clear
3:15 AM 17.6 °F 9.3 °F 14.0 °F 86% 30.14 in 10.0 mi WNW 5.8 mph - N/A   Clear
3:35 AM 17.6 °F 10.7 °F 14.0 °F 86% 30.14 in 10.0 mi West 4.6 mph - N/A   Clear
3:55 AM 17.6 °F 12.3 °F 12.2 °F 79% 30.13 in 10.0 mi WNW 3.5 mph - N/A   Clear
4:15 AM 17.6 °F 10.7 °F 12.2 °F 79% 30.13 in 10.0 mi West 4.6 mph - N/A   Clear
4:35 AM 17.6 °F 10.7 °F 14.0 °F 86% 30.14 in 10.0 mi West 4.6 mph - N/A   Clear
4:55 AM 15.8 °F 10.2 °F 12.2 °F 86% 30.14 in 10.0 mi West 3.5 mph - N/A   Clear
5:15 AM 15.8 °F 10.2 °F 12.2 °F 86% 30.14 in 10.0 mi WNW 3.5 mph - N/A   Clear
5:35 AM 15.8 °F 8.6 °F 12.2 °F 86% 30.15 in 10.0 mi West 4.6 mph - N/A   Clear
5:55 AM 15.8 °F 8.6 °F 12.2 °F 86% 30.15 in 10.0 mi West 4.6 mph - N/A   Clear
6:15 AM 15.8 °F 6.1 °F 12.2 °F 86% 30.16 in 10.0 mi WNW 6.9 mph - N/A   Clear
6:35 AM 15.8 °F 7.2 °F 12.2 °F 86% 30.15 in 10.0 mi WNW 5.8 mph - N/A   Clear
6:55 AM 17.6 °F 9.3 °F 12.2 °F 79% 30.16 in 10.0 mi WNW 5.8 mph - N/A   Clear
7:15 AM 17.6 °F 9.3 °F 14.0 °F 86% 30.16 in 10.0 mi WNW 5.8 mph - N/A   Clear
7:35 AM 19.4 °F 12.8 °F 15.8 °F 86% 30.16 in 10.0 mi NW 4.6 mph - N/A   Clear
7:55 AM 19.4 °F 14.3 °F 15.8 °F 86% 30.16 in 10.0 mi WNW 3.5 mph - N/A   Clear
8:15 AM 21.2 °F 16.4 °F 17.6 °F 86% 30.15 in 10.0 mi NW 3.5 mph - N/A   Clear
8:35 AM 21.2 °F - 17.6 °F 86% 30.15 in 10.0 mi Calm Calm - N/A   Clear
8:55 AM 23.0 °F - 17.6 °F 80% 30.15 in 10.0 mi Calm Calm - N/A   Clear
9:15 AM 24.8 °F - 19.4 °F 80% 30.15 in 10.0 mi Calm Calm - N/A   Clear
9:35 AM 26.6 °F 21.2 °F 19.4 °F 74% 30.15 in 10.0 mi WNW 4.6 mph - N/A   Clear
9:55 AM 26.6 °F 20.0 °F 19.4 °F 74% 30.15 in 10.0 mi WNW 5.8 mph - N/A   Clear
10:15 AM 28.4 °F 22.2 °F 17.6 °F 64% 30.14 in 10.0 mi NW 5.8 mph - N/A   Clear
10:35 AM 28.4 °F 24.6 °F 17.6 °F 64% 30.14 in 10.0 mi NNW 3.5 mph - N/A   Clear
10:55 AM 30.2 °F 25.4 °F 17.6 °F 60% 30.14 in 10.0 mi North 4.6 mph - N/A   Clear
11:15 AM 30.2 °F 26.7 °F 17.6 °F 60% 30.14 in 10.0 mi NNW 3.5 mph - N/A   Clear
11:35 AM 30.2 °F 26.7 °F 17.6 °F 60% 30.13 in 10.0 mi NW 3.5 mph - N/A   Clear
11:55 AM 30.2 °F 25.4 °F 17.6 °F 60% 30.13 in 10.0 mi West 4.6 mph - N/A   Clear
12:15 PM 30.2 °F 26.7 °F 17.6 °F 60% 30.12 in 10.0 mi NNW 3.5 mph - N/A   Clear
12:35 PM 32.0 °F 25.6 °F 17.6 °F 55% 30.12 in 10.0 mi NW 6.9 mph - N/A   Clear
12:55 PM 32.0 °F 28.7 °F 15.8 °F 51% 30.11 in 10.0 mi NW 3.5 mph - N/A   Clear
1:15 PM 32.0 °F 24.8 °F 17.6 °F 55% 30.11 in 10.0 mi WNW 8.1 mph - N/A   Clear
1:35 PM 33.8 °F 29.6 °F 17.6 °F 52% 30.10 in 10.0 mi NW 4.6 mph - N/A   Clear
1:55 PM 32.0 °F 26.4 °F 17.6 °F 55% 30.10 in 10.0 mi WSW 5.8 mph - N/A   Clear
2:15 PM 33.8 °F 25.8 °F 19.4 °F 56% 30.09 in 10.0 mi West 10.4 mph - N/A   Clear
2:35 PM 33.8 °F 27.7 °F 17.6 °F 52% 30.09 in 10.0 mi West 6.9 mph - N/A   Clear
2:55 PM 33.8 °F 28.6 °F 17.6 °F 52% 30.09 in 10.0 mi WSW 5.8 mph - N/A   Clear
3:15 PM 33.8 °F 28.6 °F 17.6 °F 52% 30.09 in 10.0 mi West 5.8 mph - N/A   Clear
3:35 PM 33.8 °F - 17.6 °F 52% 30.09 in 10.0 mi Calm Calm - N/A   Clear
3:55 PM 33.8 °F - 15.8 °F 48% 30.08 in 10.0 mi Calm Calm - N/A   Clear
4:15 PM 32.0 °F 28.7 °F 15.8 °F 51% 30.08 in 10.0 mi West 3.5 mph - N/A   Clear
4:35 PM 32.0 °F - 17.6 °F 55% 30.08 in 10.0 mi Calm Calm - N/A   Clear
4:55 PM 32.0 °F 27.5 °F 17.6 °F 55% 30.09 in 10.0 mi West 4.6 mph - N/A   Clear
5:15 PM 32.0 °F 28.7 °F 17.6 °F 55% 30.09 in 10.0 mi West 3.5 mph - N/A   Clear
5:35 PM 30.2 °F 26.7 °F 19.4 °F 64% 30.09 in 10.0 mi West 3.5 mph - N/A   Clear
5:55 PM 30.2 °F - 21.2 °F 69% 30.08 in 10.0 mi Calm Calm - N/A   Clear
6:15 PM 30.2 °F - 21.2 °F 69% 30.08 in 10.0 mi Calm Calm - N/A   Clear
6:35 PM 30.2 °F - 19.4 °F 64% 30.09 in 10.0 mi Calm Calm - N/A   Clear
6:55 PM 30.2 °F - 21.2 °F 69% 30.09 in 10.0 mi Calm Calm - N/A   Clear
7:15 PM 28.4 °F - 21.2 °F 74% 30.09 in 10.0 mi Calm Calm - N/A   Clear
7:35 PM 28.4 °F - 23.0 °F 80% 30.09 in 10.0 mi Calm Calm - N/A   Clear
7:55 PM 28.4 °F - 21.2 °F 74% 30.09 in 10.0 mi Calm Calm - N/A   Clear
8:15 PM 28.4 °F - 23.0 °F 80% 30.09 in 10.0 mi Calm Calm - N/A   Clear
8:35 PM 28.4 °F - 21.2 °F 74% 30.09 in 10.0 mi Calm Calm - N/A   Clear
8:55 PM 28.4 °F - 21.2 °F 74% 30.09 in 10.0 mi Calm Calm - N/A   Clear
9:15 PM 26.6 °F - 23.0 °F 86% 30.09 in 10.0 mi Calm Calm - N/A   Clear
9:35 PM 28.4 °F - 24.8 °F 86% 30.09 in 10.0 mi Calm Calm - N/A   Clear
9:55 PM 28.4 °F - 21.2 °F 74% 30.09 in 10.0 mi Calm Calm - N/A   Clear
10:15 PM 28.4 °F 24.6 °F 21.2 °F 74% 30.09 in 10.0 mi ENE 3.5 mph - N/A   Clear
10:35 PM 26.6 °F - 21.2 °F 80% 30.10 in 10.0 mi Calm Calm - N/A   Clear
10:55 PM 26.6 °F - 21.2 °F 80% 30.10 in 10.0 mi Calm Calm - N/A   Clear
11:15 PM 26.6 °F - 21.2 °F 80% 30.10 in 10.0 mi Calm Calm - N/A   Clear
11:35 PM 26.6 °F - 21.2 °F 80% 30.10 in 10.0 mi Calm Calm - N/A   Clear
11:55 PM 26.6 °F 22.6 °F 23.0 °F 86% 30.09 in 10.0 mi East 3.5 mph - N/A   Clear